createdAt,value
2022-10-14T00:01:23.522Z,97.63
2022-10-14T00:03:51.392Z,97.35
2022-10-14T00:06:22.292Z,97.04
2022-10-14T00:08:50.127Z,96.39
2022-10-14T00:11:24.849Z,96.04
2022-10-14T00:14:00.800Z,95.56
2022-10-14T00:16:30.629Z,94.79
2022-10-14T00:19:00.858Z,95.19
2022-10-14T00:21:29.044Z,96.21
2022-10-14T00:23:56.754Z,95.58
2022-10-14T00:26:25.434Z,95.13
2022-10-14T00:28:53.515Z,94.10
2022-10-14T00:31:22.691Z,93.82
2022-10-14T00:33:51.282Z,94.09
2022-10-14T00:36:20.256Z,94.46
2022-10-14T00:38:48.716Z,94.46
2022-10-14T00:41:18.985Z,93.53
2022-10-14T00:43:56.465Z,93.05
2022-10-14T00:46:25.690Z,93.88
2022-10-14T00:49:00.675Z,93.23
2022-10-14T00:51:28.648Z,92.61
2022-10-14T00:53:56.497Z,92.82
2022-10-14T00:56:28.594Z,93.72
2022-10-14T00:58:56.743Z,93.31
2022-10-14T01:01:24.610Z,93.07
2022-10-14T01:03:52.862Z,93.01
2022-10-14T01:06:39.318Z,92.87
2022-10-14T01:09:29.747Z,92.79
2022-10-14T01:12:36.535Z,93.12
2022-10-14T01:15:13.469Z,93.11
2022-10-14T01:17:54.420Z,93.29
2022-10-14T01:21:03.643Z,92.68
2022-10-14T01:23:37.999Z,93.82
2022-10-14T01:26:06.911Z,93.07
2022-10-14T01:28:34.978Z,93.61
2022-10-14T01:31:04.914Z,93.38
2022-10-14T01:33:36.913Z,92.82
2022-10-14T01:36:11.407Z,93.07
2022-10-14T01:38:41.857Z,93.51
2022-10-14T01:41:18.108Z,93.93
2022-10-14T01:43:46.839Z,93.37
2022-10-14T01:46:17.196Z,93.25
2022-10-14T01:48:47.332Z,93.79
2022-10-14T01:51:21.683Z,94.05
2022-10-14T01:54:03.238Z,94.23
2022-10-14T01:56:31.809Z,94.00
2022-10-14T01:59:00.205Z,94.09
2022-10-14T02:01:27.957Z,94.41
2022-10-14T02:03:57.779Z,94.20
2022-10-14T02:06:28.947Z,94.25
2022-10-14T02:09:12.870Z,93.98
2022-10-14T02:11:59.308Z,93.69
2022-10-14T02:14:45.366Z,93.64
2022-10-14T02:17:19.715Z,94.21
2022-10-14T02:19:53.084Z,94.84
2022-10-14T02:22:25.236Z,94.30
2022-10-14T02:25:00.269Z,94.61
2022-10-14T02:27:27.920Z,95.46
2022-10-14T02:29:56.362Z,95.32
2022-10-14T02:32:24.618Z,95.14
2022-10-14T02:34:55.000Z,94.82
2022-10-14T02:37:22.882Z,95.11
2022-10-14T02:40:04.769Z,95.33
2022-10-14T02:42:33.150Z,94.85
2022-10-14T02:45:00.972Z,95.15
2022-10-14T02:47:30.406Z,96.07
2022-10-14T02:49:58.023Z,96.51
2022-10-14T02:52:25.949Z,95.80
2022-10-14T02:54:54.971Z,96.20
2022-10-14T02:57:23.398Z,95.35
2022-10-14T02:59:53.104Z,95.62
2022-10-14T03:02:21.267Z,95.16
2022-10-14T03:04:49.345Z,95.63
2022-10-14T03:07:18.875Z,95.11
2022-10-14T03:09:51.028Z,94.82
2022-10-14T03:12:20.078Z,95.52
2022-10-14T03:14:49.633Z,94.99
2022-10-14T03:17:19.510Z,94.55
2022-10-14T03:19:53.321Z,94.82
2022-10-14T03:22:22.012Z,95.71
2022-10-14T03:24:50.768Z,96.52
2022-10-14T03:27:39.182Z,96.26
2022-10-14T03:30:11.898Z,96.34
2022-10-14T03:32:49.299Z,96.17
2022-10-14T03:35:40.003Z,95.94
2022-10-14T03:38:12.562Z,96.27
2022-10-14T03:40:41.556Z,95.90
2022-10-14T03:43:12.277Z,96.36
2022-10-14T03:45:49.535Z,96.08
2022-10-14T03:48:20.308Z,96.54
2022-10-14T03:50:48.401Z,96.11
2022-10-14T03:53:18.517Z,96.05
2022-10-14T03:55:46.509Z,96.90
2022-10-14T03:58:15.831Z,96.93
2022-10-14T04:00:50.084Z,97.42
2022-10-14T04:03:41.786Z,97.84
2022-10-14T04:06:10.682Z,98.07
2022-10-14T04:08:38.526Z,97.11
2022-10-14T04:11:21.687Z,96.69
2022-10-14T04:13:58.073Z,96.89
2022-10-14T04:16:25.834Z,96.19
2022-10-14T04:19:03.518Z,96.70
2022-10-14T04:21:33.651Z,96.59
2022-10-14T04:24:06.096Z,95.97
2022-10-14T04:26:53.278Z,95.52
2022-10-14T04:29:29.323Z,95.79
2022-10-14T04:32:03.432Z,96.33
2022-10-14T04:34:31.801Z,96.53
2022-10-14T04:36:59.402Z,95.86
2022-10-14T04:39:44.985Z,96.42
2022-10-14T04:42:13.077Z,96.28
2022-10-14T04:44:43.156Z,96.21
2022-10-14T04:47:12.972Z,95.95
2022-10-14T04:49:41.219Z,95.92
2022-10-14T04:52:15.303Z,95.41
2022-10-14T04:58:04.887Z,95.88
2022-10-14T05:00:39.738Z,95.05
2022-10-14T05:03:23.950Z,95.02
2022-10-14T05:05:52.613Z,94.48
2022-10-14T05:08:23.176Z,95.09
2022-10-14T05:10:56.507Z,94.71
2022-10-14T05:13:41.251Z,95.70
2022-10-14T05:16:09.834Z,95.10
2022-10-14T05:18:40.442Z,94.83
2022-10-14T05:21:13.586Z,94.48
2022-10-14T05:23:52.179Z,94.87
2022-10-14T05:26:20.447Z,94.12
2022-10-14T05:28:52.211Z,94.61
2022-10-14T05:31:21.201Z,94.26
2022-10-14T05:33:58.143Z,94.79
2022-10-14T05:36:26.005Z,94.18
2022-10-14T05:38:58.888Z,94.10
2022-10-14T05:41:32.081Z,93.74
2022-10-14T05:44:01.327Z,92.78
2022-10-14T05:46:30.398Z,92.74
2022-10-14T05:48:58.490Z,92.13
2022-10-14T05:51:27.720Z,92.28
2022-10-14T05:54:02.943Z,91.87
2022-10-14T05:56:31.234Z,92.34
2022-10-14T05:58:59.021Z,92.34
2022-10-14T06:01:28.885Z,92.16
2022-10-14T06:03:56.514Z,91.71
2022-10-14T06:06:28.989Z,91.40
2022-10-14T06:08:57.279Z,91.18
2022-10-14T06:11:27.277Z,90.85
2022-10-14T06:13:55.614Z,90.50
2022-10-14T06:16:23.923Z,90.13
2022-10-14T06:18:54.408Z,89.42
2022-10-14T06:21:24.967Z,89.64
2022-10-14T06:23:52.699Z,89.49
2022-10-14T06:26:20.545Z,89.24
2022-10-14T06:28:48.254Z,88.72
2022-10-14T06:31:16.168Z,88.63
2022-10-14T06:33:44.251Z,88.09
2022-10-14T06:36:12.295Z,88.46
2022-10-14T06:38:40.589Z,88.33
2022-10-14T06:41:08.455Z,87.64
2022-10-14T06:43:37.230Z,86.91
2022-10-14T06:46:05.515Z,86.80
2022-10-14T06:48:33.890Z,86.25
2022-10-14T06:51:02.186Z,85.68
2022-10-14T06:53:30.371Z,85.23
2022-10-14T06:56:05.378Z,85.13
2022-10-14T06:58:33.546Z,84.15
2022-10-14T07:01:03.534Z,83.84
2022-10-14T07:03:31.746Z,83.85
2022-10-14T07:05:59.418Z,83.17
2022-10-14T07:08:27.486Z,82.59
2022-10-14T07:10:55.384Z,82.12
2022-10-14T07:13:23.238Z,81.42
2022-10-14T07:15:53.649Z,81.79
2022-10-14T07:18:21.440Z,80.64
2022-10-14T07:20:52.168Z,80.44
2022-10-14T07:23:19.917Z,79.48
2022-10-14T07:25:47.795Z,79.81
2022-10-14T07:28:16.156Z,79.60
2022-10-14T07:30:43.922Z,78.91
2022-10-14T07:33:12.321Z,78.86
2022-10-14T07:35:40.173Z,78.47
2022-10-14T07:38:08.007Z,78.01
2022-10-14T07:40:36.208Z,78.40
2022-10-14T07:43:04.049Z,77.97
2022-10-14T07:45:36.181Z,76.28
2022-10-14T07:48:04.485Z,75.58
2022-10-14T07:50:33.227Z,74.75
2022-10-14T07:53:01.872Z,74.60
2022-10-14T07:55:29.657Z,75.14
2022-10-14T07:57:57.467Z,74.72
2022-10-14T08:00:27.814Z,74.64
2022-10-14T08:02:55.706Z,73.56
2022-10-14T08:05:37.743Z,73.21
2022-10-14T08:08:07.024Z,73.22
2022-10-14T08:10:35.300Z,71.90
2022-10-14T08:13:04.547Z,72.18
2022-10-14T08:15:38.862Z,71.76
2022-10-14T08:18:08.507Z,71.31
2022-10-14T08:20:36.481Z,70.80
2022-10-14T08:23:04.354Z,70.06
2022-10-14T08:25:32.224Z,68.00
2022-10-14T08:28:00.158Z,67.42
2022-10-14T08:30:29.801Z,68.09
2022-10-14T08:33:00.146Z,68.06
2022-10-14T08:35:28.073Z,67.55
2022-10-14T08:37:59.363Z,66.37
2022-10-14T08:40:31.512Z,64.89
2022-10-14T08:42:59.067Z,65.22
2022-10-14T08:45:40.307Z,63.65
2022-10-14T08:48:14.718Z,62.19
2022-10-14T08:51:03.418Z,64.44
2022-10-14T08:53:42.566Z,62.70
2022-10-14T08:56:10.285Z,62.27
2022-10-14T08:58:40.522Z,62.20
2022-10-14T09:01:13.476Z,61.44
2022-10-14T09:03:41.724Z,60.55
2022-10-14T09:06:26.538Z,60.67
2022-10-14T09:09:09.570Z,60.06
2022-10-14T09:11:44.299Z,59.68
2022-10-14T09:14:17.548Z,59.29
2022-10-14T09:16:50.388Z,59.98
2022-10-14T09:19:31.577Z,60.56
2022-10-14T09:22:01.336Z,60.24
2022-10-14T09:24:32.085Z,59.87
2022-10-14T09:27:13.664Z,60.55
2022-10-14T09:29:51.196Z,60.58
2022-10-14T09:32:34.274Z,59.14
2022-10-14T09:35:03.616Z,59.61
2022-10-14T09:37:35.780Z,59.08
2022-10-14T09:40:14.847Z,60.25
2022-10-14T09:43:10.681Z,60.57
2022-10-14T09:45:59.132Z,60.33
2022-10-14T09:48:46.644Z,61.46
2022-10-14T09:51:26.118Z,60.65
2022-10-14T09:53:55.671Z,61.73
2022-10-14T09:56:42.330Z,61.28
2022-10-14T09:59:20.935Z,61.40
2022-10-14T10:01:54.435Z,61.67
2022-10-14T10:04:37.295Z,62.36
2022-10-14T10:07:06.899Z,62.51
2022-10-14T10:09:34.964Z,62.53
2022-10-14T10:12:22.226Z,62.96
2022-10-14T10:14:58.244Z,62.75
2022-10-14T10:17:27.867Z,63.50
2022-10-14T10:20:18.370Z,62.88
2022-10-14T10:22:48.069Z,61.37
2022-10-14T10:25:19.176Z,60.88
2022-10-14T10:27:49.693Z,61.50
2022-10-14T10:30:30.229Z,60.78
2022-10-14T10:33:25.867Z,61.11
2022-10-14T10:39:00.031Z,62.00
2022-10-14T10:41:36.433Z,61.23
2022-10-14T10:44:34.716Z,61.19
2022-10-14T10:47:17.888Z,61.68
2022-10-14T10:50:08.485Z,62.56
2022-10-14T10:52:40.859Z,61.26
2022-10-14T10:55:26.886Z,59.23
2022-10-14T10:58:04.879Z,59.95
2022-10-14T11:00:54.775Z,61.89
2022-10-14T11:03:37.093Z,56.97
2022-10-14T11:06:15.006Z,55.66
2022-10-14T11:09:32.194Z,55.09
2022-10-14T11:12:33.447Z,53.19
2022-10-14T11:15:44.939Z,52.66
2022-10-14T11:18:27.862Z,50.32
2022-10-14T11:21:23.782Z,49.67
2022-10-14T11:24:06.855Z,49.42
2022-10-14T11:26:41.629Z,49.80
2022-10-14T11:29:21.217Z,47.99
2022-10-14T11:31:54.928Z,46.34
2022-10-14T11:34:34.874Z,46.32
2022-10-14T11:37:07.312Z,44.10
2022-10-14T11:39:50.968Z,45.47
2022-10-14T11:42:33.866Z,45.47
2022-10-14T11:45:04.157Z,46.28
2022-10-14T11:47:34.587Z,45.76
2022-10-14T11:50:15.258Z,46.71
2022-10-14T11:52:49.721Z,44.75
2022-10-14T11:55:25.657Z,45.80
2022-10-14T11:58:20.699Z,46.87
2022-10-14T12:00:56.712Z,48.95
2022-10-14T12:03:47.615Z,49.61
2022-10-14T12:06:46.663Z,49.64
2022-10-14T12:09:24.334Z,48.50
2022-10-14T12:11:58.075Z,50.65
2022-10-14T12:14:58.230Z,51.45
2022-10-14T12:17:37.589Z,50.43
2022-10-14T12:20:15.564Z,51.40
2022-10-14T12:22:45.809Z,50.89
2022-10-14T12:25:14.709Z,50.32
2022-10-14T12:27:42.389Z,51.20
2022-10-14T12:30:29.195Z,54.23
2022-10-14T12:33:17.773Z,56.54
2022-10-14T12:36:00.326Z,58.05
2022-10-14T12:38:29.321Z,58.68
2022-10-14T12:41:38.797Z,60.66
2022-10-14T12:44:14.292Z,62.80
2022-10-14T12:46:45.414Z,65.21
2022-10-14T12:49:31.630Z,66.39
2022-10-14T12:52:06.900Z,65.09
2022-10-14T12:54:35.742Z,61.59
2022-10-14T12:57:27.915Z,58.41
2022-10-14T12:59:56.408Z,56.65
2022-10-14T13:02:45.913Z,54.35
2022-10-14T13:05:39.794Z,52.08
2022-10-14T13:08:26.477Z,48.88
2022-10-14T13:10:54.623Z,48.86
2022-10-14T13:13:42.038Z,46.95
2022-10-14T13:16:11.272Z,44.94
2022-10-14T13:18:43.072Z,42.60
2022-10-14T13:21:32.412Z,42.29
2022-10-14T13:24:14.342Z,41.87
2022-10-14T13:26:55.154Z,41.70
2022-10-14T13:29:44.466Z,42.12
2022-10-14T13:32:33.628Z,42.09
2022-10-14T13:35:23.600Z,41.04
2022-10-14T13:38:00.609Z,38.94
2022-10-14T13:40:37.715Z,38.32
2022-10-14T13:43:07.506Z,40.19
2022-10-14T13:45:42.024Z,38.21
2022-10-14T13:48:14.513Z,38.55
2022-10-14T13:50:45.000Z,39.48
2022-10-14T13:53:20.810Z,40.20
2022-10-14T13:55:54.431Z,38.86
2022-10-14T13:58:26.198Z,38.58
2022-10-14T14:01:00.221Z,40.17
2022-10-14T14:03:38.547Z,39.44
2022-10-14T14:06:11.011Z,38.73
2022-10-14T14:09:02.440Z,40.08
2022-10-14T14:11:35.942Z,41.11
2022-10-14T14:14:17.970Z,40.18
2022-10-14T14:16:57.327Z,40.64
2022-10-14T14:19:26.923Z,45.84
2022-10-14T14:22:19.269Z,50.01
2022-10-14T14:24:48.238Z,52.04
2022-10-14T14:27:23.902Z,52.86
2022-10-14T14:29:52.308Z,52.05
2022-10-14T14:32:25.980Z,55.27
2022-10-14T14:40:22.265Z,56.85
2022-10-14T14:42:52.917Z,53.91
2022-10-14T14:45:23.146Z,53.71
2022-10-14T14:47:53.658Z,53.57
2022-10-14T14:50:33.799Z,54.32
2022-10-14T14:53:04.409Z,55.33
2022-10-14T14:55:37.776Z,55.63
2022-10-14T14:58:06.823Z,56.25
2022-10-14T15:00:34.694Z,56.77
2022-10-14T15:03:02.491Z,57.05
2022-10-14T15:05:30.472Z,57.49
2022-10-14T15:07:58.710Z,57.85
2022-10-14T15:10:29.703Z,58.19
2022-10-14T15:12:58.704Z,59.23
2022-10-14T15:15:33.662Z,60.22
2022-10-14T15:18:10.905Z,60.96
2022-10-14T15:20:39.339Z,61.87
2022-10-14T15:23:48.356Z,62.55
2022-10-14T15:26:22.193Z,64.05
2022-10-14T15:32:01.321Z,66.32
2022-10-14T15:34:29.589Z,67.57
2022-10-14T15:36:57.878Z,68.98
2022-10-14T15:39:26.002Z,70.00
2022-10-14T15:41:53.981Z,71.18
2022-10-14T15:44:21.825Z,72.94
2022-10-14T15:47:08.824Z,74.06
2022-10-14T15:49:45.226Z,74.29
2022-10-14T15:52:16.820Z,75.29
2022-10-14T15:54:46.011Z,76.91
2022-10-14T15:57:17.203Z,77.14
2022-10-14T15:59:48.781Z,77.10
2022-10-14T16:02:23.159Z,77.52
2022-10-14T16:05:18.318Z,77.67
2022-10-14T16:07:41.746Z,78.51
2022-10-14T16:10:11.261Z,79.52
2022-10-14T16:12:40.961Z,80.42
2022-10-14T16:15:46.176Z,80.71
2022-10-14T16:18:14.918Z,79.77
2022-10-14T16:20:43.153Z,80.22
2022-10-14T16:23:22.749Z,80.97
2022-10-14T16:25:53.647Z,80.12
2022-10-14T16:28:21.936Z,80.39
2022-10-14T16:30:51.318Z,80.08
2022-10-14T16:33:19.945Z,80.79
2022-10-14T16:36:00.272Z,81.14
2022-10-14T16:38:28.437Z,81.86
2022-10-14T16:40:56.798Z,82.25
2022-10-14T16:43:25.143Z,81.85
2022-10-14T16:45:52.801Z,81.36
2022-10-14T16:48:21.015Z,81.62
2022-10-14T16:50:51.252Z,82.49
2022-10-14T16:53:37.470Z,82.68
2022-10-14T16:56:25.488Z,82.48
2022-10-14T16:58:53.381Z,82.52
2022-10-14T17:01:22.115Z,82.23
2022-10-14T17:03:49.906Z,82.49
2022-10-14T17:06:23.153Z,82.46
2022-10-14T17:08:53.389Z,82.52
2022-10-14T17:11:28.379Z,83.17
2022-10-14T17:13:59.201Z,83.07
2022-10-14T17:16:30.936Z,83.35
2022-10-14T17:18:59.129Z,84.39
2022-10-14T17:21:29.832Z,82.34
2022-10-14T17:24:03.513Z,81.21
2022-10-14T17:26:32.702Z,80.08
2022-10-14T17:29:00.705Z,78.82
2022-10-14T17:31:29.144Z,77.66
2022-10-14T17:33:58.819Z,77.30
2022-10-14T17:36:33.817Z,79.22
2022-10-14T17:39:01.487Z,79.96
2022-10-14T17:41:29.824Z,79.39
2022-10-14T17:44:01.328Z,79.44
2022-10-14T17:46:29.967Z,79.55
2022-10-14T17:48:59.741Z,79.43
2022-10-14T17:51:28.300Z,79.63
2022-10-14T17:53:58.563Z,78.89
2022-10-14T17:56:26.945Z,78.31
2022-10-14T17:58:59.624Z,77.97
2022-10-14T18:01:37.548Z,78.08
2022-10-14T18:04:11.737Z,77.98
2022-10-14T18:06:39.925Z,77.38
2022-10-14T18:09:08.729Z,77.27
2022-10-14T18:12:07.532Z,77.89
2022-10-14T18:14:30.750Z,79.63
2022-10-14T18:17:00.239Z,79.81
2022-10-14T18:19:28.319Z,79.95
2022-10-14T18:21:56.555Z,80.29
2022-10-14T18:24:24.450Z,79.05
2022-10-14T18:26:52.685Z,78.76
2022-10-14T18:29:20.325Z,78.89
2022-10-14T18:31:49.383Z,77.72
2022-10-14T18:34:22.583Z,76.98
2022-10-14T18:36:50.549Z,75.66
2022-10-14T18:39:20.273Z,75.58
2022-10-14T18:41:48.025Z,75.77
2022-10-14T18:44:15.991Z,75.55
2022-10-14T18:46:43.799Z,75.60
2022-10-14T18:49:11.811Z,76.33
2022-10-14T18:51:40.486Z,76.88
2022-10-14T18:54:14.984Z,77.91
2022-10-14T18:56:44.604Z,78.64
2022-10-14T18:59:18.079Z,78.30
2022-10-14T19:01:47.319Z,78.79
2022-10-14T19:04:15.600Z,79.49
2022-10-14T19:06:46.049Z,79.80
2022-10-14T19:09:13.930Z,79.27
2022-10-14T19:11:42.302Z,78.87
2022-10-14T19:14:10.124Z,79.10
2022-10-14T19:16:39.279Z,79.71
2022-10-14T19:19:11.732Z,81.50
2022-10-14T19:21:41.024Z,81.90
2022-10-14T19:24:09.552Z,82.24
2022-10-14T19:26:44.388Z,82.83
2022-10-14T19:29:14.222Z,82.69
2022-10-14T19:31:44.006Z,82.91
2022-10-14T19:34:14.750Z,83.09
2022-10-14T19:36:42.735Z,83.71
2022-10-14T19:39:12.870Z,84.18
2022-10-14T19:41:44.485Z,84.80
2022-10-14T19:44:14.010Z,85.52
2022-10-14T19:46:41.918Z,85.55
2022-10-14T19:49:11.120Z,85.50
2022-10-14T19:51:39.931Z,85.87
2022-10-14T19:54:07.689Z,86.30
2022-10-14T19:56:35.878Z,86.81
2022-10-14T19:59:04.051Z,87.86
2022-10-14T20:01:33.407Z,87.65
2022-10-14T20:04:02.303Z,87.94
2022-10-14T20:06:32.897Z,88.15
2022-10-14T20:09:01.958Z,87.95
2022-10-14T20:11:33.353Z,87.97
2022-10-14T20:14:03.180Z,88.52
2022-10-14T20:16:32.284Z,88.68
2022-10-14T20:19:00.442Z,88.73
2022-10-14T20:21:30.287Z,89.02
2022-10-14T20:23:59.319Z,89.43
2022-10-14T20:26:27.650Z,89.71
2022-10-14T20:28:56.078Z,91.24
2022-10-14T20:31:25.583Z,93.89
2022-10-14T20:33:55.561Z,93.27
2022-10-14T20:36:23.771Z,91.50
2022-10-14T20:38:51.671Z,91.21
2022-10-14T20:41:24.561Z,90.73
2022-10-14T20:43:52.590Z,91.12
2022-10-14T20:46:21.966Z,90.81
2022-10-14T20:48:53.748Z,90.85
2022-10-14T20:51:22.963Z,90.67
2022-10-14T20:53:50.700Z,90.40
2022-10-14T20:56:19.082Z,90.63
2022-10-14T20:58:46.886Z,90.90
2022-10-14T21:01:16.262Z,90.53
2022-10-14T21:03:45.596Z,91.06
2022-10-14T21:06:14.969Z,90.68
2022-10-14T21:08:42.689Z,91.23
2022-10-14T21:11:15.033Z,91.18
2022-10-14T21:13:45.553Z,91.27
2022-10-14T21:16:20.815Z,91.86
2022-10-14T21:18:53.589Z,91.98
2022-10-14T21:21:29.588Z,92.87
2022-10-14T21:23:57.454Z,92.50
2022-10-14T21:26:25.563Z,92.38
2022-10-14T21:28:53.556Z,92.81
2022-10-14T21:31:21.459Z,92.43
2022-10-14T21:33:54.638Z,93.07
2022-10-14T21:36:22.401Z,93.14
2022-10-14T21:38:50.491Z,93.13
2022-10-14T21:41:18.874Z,93.60
2022-10-14T21:43:46.753Z,93.17
2022-10-14T21:46:14.975Z,93.18
2022-10-14T21:48:43.925Z,93.41
2022-10-14T21:51:16.294Z,93.19
2022-10-14T21:53:45.010Z,93.31
2022-10-14T21:56:13.590Z,93.28
2022-10-14T21:58:41.344Z,93.32
2022-10-14T22:01:22.008Z,93.07
2022-10-14T22:03:57.672Z,93.32
2022-10-14T22:06:25.659Z,93.58
2022-10-14T22:08:55.569Z,93.43
2022-10-14T22:11:36.647Z,93.68
2022-10-14T22:14:06.007Z,94.06
2022-10-14T22:16:33.739Z,94.19
2022-10-14T22:19:03.025Z,94.00
2022-10-14T22:21:32.364Z,94.36
2022-10-14T22:24:00.170Z,94.19
2022-10-14T22:26:28.787Z,93.93
2022-10-14T22:29:06.788Z,94.52
2022-10-14T22:31:35.056Z,94.35
2022-10-14T22:34:04.662Z,94.14
2022-10-14T22:36:34.160Z,94.48
2022-10-14T22:39:03.417Z,94.33
2022-10-14T22:41:35.736Z,94.18
2022-10-14T22:44:04.361Z,94.13
2022-10-14T22:46:33.408Z,94.26
2022-10-14T22:49:02.117Z,94.22
2022-10-14T22:51:32.138Z,94.80
2022-10-14T22:54:00.174Z,94.67
2022-10-14T22:56:28.645Z,94.69
2022-10-14T22:58:57.233Z,94.99
2022-10-14T23:01:27.819Z,95.08
2022-10-14T23:03:56.475Z,95.36
2022-10-14T23:06:26.360Z,95.24
2022-10-14T23:08:54.613Z,95.12
2022-10-14T23:11:23.398Z,95.21
2022-10-14T23:13:51.279Z,95.41
2022-10-14T23:16:20.886Z,95.67
2022-10-14T23:18:48.639Z,95.31
2022-10-14T23:21:21.970Z,94.96
2022-10-14T23:23:50.656Z,95.10
2022-10-14T23:26:21.507Z,94.83
2022-10-14T23:28:50.389Z,94.97
2022-10-14T23:31:19.545Z,95.11
2022-10-14T23:33:49.303Z,95.01
2022-10-14T23:36:17.066Z,94.99
2022-10-14T23:38:44.663Z,95.15
2022-10-14T23:41:12.899Z,95.23
2022-10-14T23:43:40.657Z,94.97
2022-10-14T23:46:08.737Z,94.92
2022-10-14T23:48:36.626Z,95.20
2022-10-14T23:51:04.593Z,95.29
2022-10-14T23:53:34.757Z,95.24
2022-10-14T23:56:02.502Z,95.24
2022-10-14T23:58:30.797Z,95.24
